Historique des mesures à Cassis (13260), France
Quotidien Résumé Mars 19, 2018 Unités:  Métrique    US   Métrique/US
« Précédent (Jour)
Suivant (Jour) »
Quotidien Hebdomadaire Mensuel Annuel Période au choix
  Maximum: Minimum: Moyenne:
Température: TemperatureC °C 6.2 °C 9.5 °C
Point de rosée: DewpointC °C -0.8 °C 0.7 °C
Humidité: Humidity % 39 % 52 %
Vitesse du vent: 0 km/h 0 km/h 21.6 km/h
Rafales: 0 km/h - -
Vent:- - NW
Pression: PressurehPa hPa 995.8 hPa -
Précipitations: 0.0 mm    
Historical Graphs
 
 
Mesures pour : Mars 19, 2018
Heure Temperature Point de rosée Pression Vent Vitesse du vent Rafales Humidité Pluie (par heure) Conditions
TemperatureC °C DewpointC °C PressurehPa hPa Calm     Humidity % HourlyPrecipMM mm SoftwareType W/m2
00:11 9.4 °C 0.8 °C 995.8 hPa NW 38.3 km/h 40.7 km/h 55 % 0.0 mm open2300-1.11 W/m2
01:12 9.1 °C 0.7 °C 996.2 hPa NW 33.6 km/h 33.6 km/h 56 % 0.0 mm open2300-1.11 W/m2
02:12 8.6 °C 0.3 °C 996.5 hPa WNW 81.6 km/h 81.6 km/h 56 % 0.0 mm open2300-1.11 W/m2
03:11 8.1 °C 0.1 °C 996.5 hPa NNW 27.7 km/h 52.8 km/h 57 % 0.0 mm open2300-1.11 W/m2
04:11 7.8 °C -0.2 °C 996.8 hPa NW 33.2 km/h 36 km/h 57 % 0.0 mm open2300-1.11 W/m2
05:11 7.8 °C -0.5 °C 996.5 hPa WNW 37 km/h 37 km/h 56 % 0.0 mm open2300-1.11 W/m2
06:12 6.9 °C -0.3 °C 997.2 hPa WNW 53.9 km/h 53.9 km/h 60 % 0.0 mm open2300-1.11 W/m2
07:12 6.2 °C -0.8 °C 997.9 hPa WNW 33.2 km/h 33.6 km/h 61 % 0.0 mm open2300-1.11 W/m2
08:11 6.7 °C -0.5 °C 998.5 hPa NW 27.7 km/h 27.7 km/h 60 % 0.0 mm open2300-1.11 W/m2
09:11 8.3 °C 0.0 °C 998.9 hPa NNW 9.3 km/h 12.7 km/h 56 % 0.0 mm open2300-1.11 W/m2
10:12 9.6 °C 0.4 °C 998.5 hPa WNW 6.9 km/h 37.5 km/h 53 % 0.0 mm open2300-1.11 W/m2
11:12 11.1 °C 0.4 °C 998.9 hPa WNW 39.9 km/h 39.9 km/h 48 % 0.0 mm open2300-1.11 W/m2
12:12 12.2 °C -0.7 °C 998.9 hPa NNW 24.8 km/h 41.2 km/h 41 % 0.0 mm open2300-1.11 W/m2
13:11 12.9 °C -0.4 °C 998.5 hPa NNW 19.6 km/h 32.3 km/h 40 % 0.0 mm open2300-1.11 W/m2
14:11 13.5 °C -0.2 °C 998.2 hPa West 23 km/h 23 km/h 39 % 0.0 mm open2300-1.11 W/m2
15:11 13.6 °C -0.2 °C 997.5 hPa WNW 31.9 km/h 31.9 km/h 39 % 0.0 mm open2300-1.11 W/m2
16:11 13.8 °C 1.1 °C 997.5 hPa NW 6.9 km/h 21.6 km/h 42 % 0.0 mm open2300-1.11 W/m2
17:12 12.9 °C 2.4 °C 996.8 hPa West 7.6 km/h 27.2 km/h 49 % 0.0 mm open2300-1.11 W/m2
18:11 12.3 °C 2.6 °C 997.5 hPa Calm   27.2 km/h 52 % 0.0 mm open2300-1.11 W/m2
19:11 10.9 °C 2.9 °C 998.2 hPa Calm     58 % 0.0 mm open2300-1.11 W/m2
20:11 9.9 °C 2.2 °C 998.5 hPa Calm     59 % 0.0 mm open2300-1.11 W/m2
21:12 9.1 °C 1.8 °C 998.9 hPa Calm   4.2 km/h 60 % 0.0 mm open2300-1.11 W/m2
22:12 8.9 °C 2.7 °C 998.5 hPa Calm   2.9 km/h 65 % 0.0 mm open2300-1.11 W/m2
23:11 8.1 °C 2.6 °C 998.2 hPa NW 3.4 km/h 11.6 km/h 68 % 0.0 mm open2300-1.11 W/m2
Observations météo à CASSIS
WU-History script by Weather Underground - 1 mb